Time;durP1;ratioP1;P1;durP2;ratioP2;P2;SDS_P1;SDS_P2;PMS_P1;PMS_P2;Temp;Humidity;BMP_temperature;BMP_pressure;BME280_temperature;BME280_humidity;BME280_pressure;Samples;Min_cycle;Max_cycle;Signal;HPM_P1;HPM_P2
2021/12/29 00:01:58;;;;;;;;;;;;;;;;;;5115774;28;20035;-82
2021/12/29 00:04:27;;;;;;;;;;;;;;;;;;5114449;28;19983;-81
2021/12/29 00:06:56;;;;;;;;;;;;;;;;;;5115179;28;19950;-82
2021/12/29 00:09:23;;;;;;;;;;;;;;;;;;5115715;28;19950;-84
2021/12/29 00:11:50;;;;;;;;;;;;;;;;;;5115634;28;20419;-83
2021/12/29 00:14:17;;;;;;;;;;;;;;;;;;5115613;28;20118;-82
2021/12/29 00:16:44;;;;;;;;;;;;;;;;;;5115661;28;20056;-80
2021/12/29 00:19:11;;;;;;;;;;;;;;;;;;5115407;28;20476;-83
2021/12/29 00:21:38;;;;;;;;;;;;;;;;;;5115155;28;20036;-80
2021/12/29 00:24:05;;;;;;;;;;;;;;;;;;5115660;28;20049;-82
2021/12/29 00:26:32;;;;;;;;;;;;;;;;;;5114043;28;19955;-81
2021/12/29 00:28:59;;;;;;;;;;;;;;;;;;5114193;28;20386;-81
2021/12/29 00:31:26;;;;;;;;;;;;;;;;;;5113455;28;19962;-82
2021/12/29 00:33:53;;;;;;;;;;;;;;;;;;5113648;28;20053;-80
2021/12/29 00:36:20;;;;;;;;;;;;;;;;;;5114439;28;20060;-80
2021/12/29 00:38:47;;;;;;;;;;;;;;;;;;5115299;28;20058;-80
2021/12/29 00:41:14;;;;;;;;;;;;;;;;;;5114676;28;20049;-81
2021/12/29 00:43:41;;;;;;;;;;;;;;;;;;5114977;28;20389;-82
2021/12/29 00:46:10;;;;;;;;;;;;;;;;;;5115031;28;20047;-80
2021/12/29 00:48:39;;;;;;;;;;;;;;;;;;5114895;28;20328;-80
2021/12/29 00:51:06;;;;;;;;;;;;;;;;;;5115149;28;19958;-81
2021/12/29 00:53:33;;;;;;;;;;;;;;;;;;5115073;28;20058;-80
2021/12/29 00:56:00;;;;;;;;;;;;;;;;;;5114346;28;20499;-80
2021/12/29 00:58:29;;;;;;;;;;;;;;;;;;5114814;28;20002;-81
2021/12/29 01:00:56;;;;;;;;;;;;;;;;;;5114575;28;19973;-80
2021/12/29 01:03:23;;;;;;;;;;;;;;;;;;5114878;28;19961;-81
2021/12/29 01:05:50;;;;;;;;;;;;;;;;;;5114849;28;20041;-80
2021/12/29 01:08:17;;;;;;;;;;;;;;;;;;5114621;28;20479;-80
2021/12/29 01:10:44;;;;;;;;;;;;;;;;;;5114456;28;19990;-81
2021/12/29 01:13:14;;;;;;;;;;;;;;;;;;5114358;28;20055;-80
2021/12/29 01:15:56;;;;;;;;;;;;;;;;;;5114079;28;19979;-81
2021/12/29 01:18:23;;;;;;;;;;;;;;;;;;5114528;28;20445;-81
2021/12/29 01:20:50;;;;;;;;;;;;;;;;;;5114484;28;20040;-81
2021/12/29 01:23:17;;;;;;;;;;;;;;;;;;5114503;28;20041;-81
2021/12/29 01:25:44;;;;;;;;;;;;;;;;;;5114343;28;20004;-80
2021/12/29 01:28:11;;;;;;;;;;;;;;;;;;5114089;28;20035;-81
2021/12/29 01:30:38;;;;;;;;;;;;;;;;;;5114510;28;20003;-81
2021/12/29 01:33:06;;;;;;;;;;;;;;;;;;5114231;28;20042;-81
2021/12/29 01:35:33;;;;;;;;;;;;;;;;;;5114238;28;19979;-81
2021/12/29 01:38:00;;;;;;;;;;;;;;;;;;5113971;28;20067;-81
2021/12/29 01:40:27;;;;;;;;;;;;;;;;;;5114233;28;20064;-81
2021/12/29 01:42:54;;;;;;;;;;;;;;;;;;5113946;28;20060;-82
2021/12/29 01:45:21;;;;;;;;;;;;;;;;;;5114024;28;20062;-81
2021/12/29 01:47:48;;;;;;;;;;;;;;;;;;5114348;28;20398;-81
2021/12/29 01:50:15;;;;;;;;;;;;;;;;;;5114050;28;19970;-81
2021/12/29 01:52:49;;;;;;;;;;;;;;;;;;5114062;28;20055;-81
2021/12/29 01:55:16;;;;;;;;;;;;;;;;;;5113791;28;19956;-81
2021/12/29 01:57:43;;;;;;;;;;;;;;;;;;5114038;28;20038;-81
2021/12/29 02:00:10;;;;;;;;;;;;;;;;;;5113755;28;20057;-81
2021/12/29 02:02:37;;;;;;;;;;;;;;;;;;5113899;28;20043;-81
2021/12/29 02:05:04;;;;;;;;;;;;;;;;;;5113888;28;20036;-80
2021/12/29 02:07:32;;;;;;;;;;;;;;;;;;5093426;28;20049;-81
2021/12/29 02:09:59;;;;;;;;;;;;;;;;;;5093511;28;20027;-80
2021/12/29 02:12:26;;;;;;;;;;;;;;;;;;5093471;28;19958;-80
2021/12/29 02:14:53;;;;;;;;;;;;;;;;;;5093307;28;20552;-81
2021/12/29 02:17:20;;;;;;;;;;;;;;;;;;5093547;28;20019;-80
2021/12/29 02:19:48;;;;;;;;;;;;;;;;;;5093287;28;20046;-81
2021/12/29 02:22:28;;;;;;;;;;;;;;;;;;5113595;28;19966;-81
2021/12/29 02:25:07;;;;;;;;;;;;;;;;;;5113430;28;20324;-81
2021/12/29 02:27:34;;;;;;;;;;;;;;;;;;5114244;28;19959;-81
2021/12/29 02:30:01;;;;;;;;;;;;;;;;;;5117740;28;20049;-81
2021/12/29 02:32:28;;;;;;;;;;;;;;;;;;5117738;28;19992;-80
2021/12/29 02:34:55;;;;;;;;;;;;;;;;;;5117541;28;20049;-81
2021/12/29 02:37:23;;;;;;;;;;;;;;;;;;5117440;28;20529;-80
2021/12/29 02:39:51;;;;;;;;;;;;;;;;;;5117337;28;20377;-81
2021/12/29 02:42:18;;;;;;;;;;;;;;;;;;5117702;28;19999;-81
2021/12/29 02:44:46;;;;;;;;;;;;;;;;;;5117421;28;20059;-81
2021/12/29 02:47:13;;;;;;;;;;;;;;;;;;5117365;28;19958;-80
2021/12/29 02:49:40;;;;;;;;;;;;;;;;;;5117288;28;20047;-81
2021/12/29 02:52:08;;;;;;;;;;;;;;;;;;5117265;28;20046;-83
2021/12/29 02:54:35;;;;;;;;;;;;;;;;;;5117382;28;19959;-80
2021/12/29 02:57:02;;;;;;;;;;;;;;;;;;5116891;28;20057;-80
2021/12/29 02:59:29;;;;;;;;;;;;;;;;;;5116929;28;19992;-81
2021/12/29 03:01:56;;;;;;;;;;;;;;;;;;5117160;28;20059;-81
2021/12/29 03:04:23;;;;;;;;;;;;;;;;;;5117103;28;20055;-80
2021/12/29 03:06:50;;;;;;;;;;;;;;;;;;5117229;28;19996;-80
2021/12/29 03:09:17;;;;;;;;;;;;;;;;;;5117091;28;20045;-81
2021/12/29 03:11:44;;;;;;;;;;;;;;;;;;5116599;28;19986;-80
2021/12/29 03:14:11;;;;;;;;;;;;;;;;;;5116638;28;20066;-81
2021/12/29 03:16:38;;;;;;;;;;;;;;;;;;5116713;28;20070;-81
2021/12/29 03:19:05;;;;;;;;;;;;;;;;;;5117007;28;20047;-80
2021/12/29 03:21:32;;;;;;;;;;;;;;;;;;5116739;28;20469;-82
2021/12/29 03:23:59;;;;;;;;;;;;;;;;;;5116781;28;20053;-81
2021/12/29 03:26:26;;;;;;;;;;;;;;;;;;5116649;28;20005;-81
2021/12/29 03:28:54;;;;;;;;;;;;;;;;;;5116393;28;20475;-81
2021/12/29 03:31:21;;;;;;;;;;;;;;;;;;5116457;28;19971;-81
2021/12/29 03:33:48;;;;;;;;;;;;;;;;;;5116667;28;19963;-81
2021/12/29 03:36:15;;;;;;;;;;;;;;;;;;5115699;28;20078;-81
2021/12/29 03:38:42;;;;;;;;;;;;;;;;;;5115655;28;20049;-81
2021/12/29 03:41:09;;;;;;;;;;;;;;;;;;5115377;28;20041;-81
2021/12/29 03:43:36;;;;;;;;;;;;;;;;;;5116255;28;20055;-81
2021/12/29 03:46:03;;;;;;;;;;;;;;;;;;5115971;28;20486;-81
2021/12/29 03:48:30;;;;;;;;;;;;;;;;;;5116176;28;20046;-81
2021/12/29 03:50:57;;;;;;;;;;;;;;;;;;5116209;28;20015;-81
2021/12/29 03:53:24;;;;;;;;;;;;;;;;;;5116084;28;19981;-81
2021/12/29 03:55:51;;;;;;;;;;;;;;;;;;5115699;28;20049;-81
2021/12/29 03:58:18;;;;;;;;;;;;;;;;;;5115943;28;19955;-80
2021/12/29 04:00:45;;;;;;;;;;;;;;;;;;5115835;28;20006;-81
2021/12/29 04:03:12;;;;;;;;;;;;;;;;;;5116098;28;20046;-81
2021/12/29 04:05:39;;;;;;;;;;;;;;;;;;5115910;28;19998;-81
2021/12/29 04:08:06;;;;;;;;;;;;;;;;;;5115865;28;20049;-82
2021/12/29 04:10:33;;;;;;;;;;;;;;;;;;5115391;28;20479;-81
2021/12/29 04:13:00;;;;;;;;;;;;;;;;;;5115504;28;20053;-81
2021/12/29 04:15:27;;;;;;;;;;;;;;;;;;5115791;28;20056;-82
2021/12/29 04:17:58;;;;;;;;;;;;;;;;;;5115580;28;20018;-83
2021/12/29 04:23:09;;;;;;;;;;;;;;;;;;5115503;28;19950;-80
2021/12/29 04:25:38;;;;;;;;;;;;;;;;;;5115134;28;20366;-81
2021/12/29 04:28:07;;;;;;;;;;;;;;;;;;5115638;28;19954;-80
2021/12/29 04:30:34;;;;;;;;;;;;;;;;;;5115129;28;19954;-80
2021/12/29 04:33:01;;;;;;;;;;;;;;;;;;5115333;28;19999;-81
2021/12/29 04:35:28;;;;;;;;;;;;;;;;;;5115038;28;20042;-81
2021/12/29 04:37:55;;;;;;;;;;;;;;;;;;5115028;28;20517;-81
2021/12/29 04:40:22;;;;;;;;;;;;;;;;;;5115322;28;20044;-81
2021/12/29 04:42:49;;;;;;;;;;;;;;;;;;5115298;28;20051;-81
2021/12/29 04:45:16;;;;;;;;;;;;;;;;;;5115059;28;20050;-81
2021/12/29 04:47:45;;;;;;;;;;;;;;;;;;5114910;28;20465;-81
2021/12/29 04:50:23;;;;;;;;;;;;;;;;;;5114345;28;19948;-81
2021/12/29 04:52:50;;;;;;;;;;;;;;;;;;5114883;28;20410;-81
2021/12/29 04:55:17;;;;;;;;;;;;;;;;;;5114734;28;19997;-81
2021/12/29 04:57:44;;;;;;;;;;;;;;;;;;5114658;28;19976;-81
2021/12/29 05:00:11;;;;;;;;;;;;;;;;;;5114693;28;20054;-81
2021/12/29 05:02:38;;;;;;;;;;;;;;;;;;5114796;28;20406;-81
2021/12/29 05:05:18;;;;;;;;;;;;;;;;;;5114700;28;19977;-82
2021/12/29 05:10:26;;;;;;;;;;;;;;;;;;5101092;28;20438;-81
2021/12/29 05:12:53;;;;;;;;;;;;;;;;;;5114386;28;20048;-81
2021/12/29 05:15:20;;;;;;;;;;;;;;;;;;5114490;28;20049;-81
2021/12/29 05:17:47;;;;;;;;;;;;;;;;;;5114215;28;19975;-81
2021/12/29 05:20:14;;;;;;;;;;;;;;;;;;5114009;28;20390;-81
2021/12/29 05:22:41;;;;;;;;;;;;;;;;;;5114310;28;20049;-81
2021/12/29 05:25:08;;;;;;;;;;;;;;;;;;5114221;28;20040;-81
2021/12/29 05:27:35;;;;;;;;;;;;;;;;;;5114372;28;20413;-81
2021/12/29 05:30:03;;;;;;;;;;;;;;;;;;5114408;28;20040;-81
2021/12/29 05:32:30;;;;;;;;;;;;;;;;;;5114224;28;19960;-81
2021/12/29 05:34:57;;;;;;;;;;;;;;;;;;5114086;28;19951;-80
2021/12/29 05:37:24;;;;;;;;;;;;;;;;;;5114131;28;20062;-81
2021/12/29 05:39:51;;;;;;;;;;;;;;;;;;5113826;28;19998;-81
2021/12/29 05:42:18;;;;;;;;;;;;;;;;;;5114030;28;20049;-81
2021/12/29 05:44:45;;;;;;;;;;;;;;;;;;5114009;28;19956;-81
2021/12/29 05:47:12;;;;;;;;;;;;;;;;;;5113997;28;20046;-80
2021/12/29 05:49:39;;;;;;;;;;;;;;;;;;5114106;28;20046;-81
2021/12/29 05:52:06;;;;;;;;;;;;;;;;;;5113928;28;20039;-80
2021/12/29 05:54:33;;;;;;;;;;;;;;;;;;5113763;28;20051;-80
2021/12/29 05:57:00;;;;;;;;;;;;;;;;;;5113573;28;20408;-81
2021/12/29 05:59:27;;;;;;;;;;;;;;;;;;5113904;28;20031;-81
2021/12/29 06:01:54;;;;;;;;;;;;;;;;;;5113921;28;20027;-81
2021/12/29 06:04:21;;;;;;;;;;;;;;;;;;5117648;28;20041;-81
2021/12/29 06:06:48;;;;;;;;;;;;;;;;;;5118209;28;19963;-81
2021/12/29 06:09:15;;;;;;;;;;;;;;;;;;5117942;28;20008;-81
2021/12/29 06:11:42;;;;;;;;;;;;;;;;;;5118055;28;20002;-81
2021/12/29 06:14:09;;;;;;;;;;;;;;;;;;5117407;28;20062;-80
2021/12/29 06:16:36;;;;;;;;;;;;;;;;;;5117954;28;20074;-81
2021/12/29 06:19:03;;;;;;;;;;;;;;;;;;5117780;28;20052;-81
2021/12/29 06:21:30;;;;;;;;;;;;;;;;;;5117791;28;20398;-81
2021/12/29 06:23:57;;;;;;;;;;;;;;;;;;5117778;28;20039;-81
2021/12/29 06:26:24;;;;;;;;;;;;;;;;;;5117469;28;19954;-81
2021/12/29 06:28:51;;;;;;;;;;;;;;;;;;5117946;28;19997;-81
2021/12/29 06:31:18;;;;;;;;;;;;;;;;;;5117774;28;19960;-81
2021/12/29 06:33:46;;;;;;;;;;;;;;;;;;5117531;28;20045;-81
2021/12/29 06:36:13;;;;;;;;;;;;;;;;;;5117471;28;20000;-80
2021/12/29 06:38:40;;;;;;;;;;;;;;;;;;5117397;28;20389;-81
2021/12/29 06:41:07;;;;;;;;;;;;;;;;;;5117429;28;20052;-81
2021/12/29 06:43:34;;;;;;;;;;;;;;;;;;5117606;28;20058;-81
2021/12/29 06:46:01;;;;;;;;;;;;;;;;;;5117097;28;20434;-80
2021/12/29 06:48:28;;;;;;;;;;;;;;;;;;5117483;28;20383;-80
2021/12/29 06:50:55;;;;;;;;;;;;;;;;;;5117240;28;20003;-81
2021/12/29 06:53:22;;;;;;;;;;;;;;;;;;5117161;28;20003;-81
2021/12/29 06:55:49;;;;;;;;;;;;;;;;;;5117312;28;19952;-81
2021/12/29 06:58:16;;;;;;;;;;;;;;;;;;5116792;28;20517;-81
2021/12/29 07:00:43;;;;;;;;;;;;;;;;;;5117329;28;20041;-81
2021/12/29 07:03:10;;;;;;;;;;;;;;;;;;5117098;28;20006;-80
2021/12/29 07:05:37;;;;;;;;;;;;;;;;;;5116963;28;19949;-81
2021/12/29 07:08:03;;;;;;;;;;;;;;;;;;5117085;28;20039;-81
2021/12/29 07:10:30;;;;;;;;;;;;;;;;;;5117022;28;20063;-81
2021/12/29 07:12:57;;;;;;;;;;;;;;;;;;5115393;28;20003;-81
2021/12/29 07:15:24;;;;;;;;;;;;;;;;;;5116345;28;20051;-81
2021/12/29 07:17:51;;;;;;;;;;;;;;;;;;5116702;28;20074;-80
2021/12/29 07:20:18;;;;;;;;;;;;;;;;;;5116728;28;20368;-81
2021/12/29 07:22:45;;;;;;;;;;;;;;;;;;5117005;28;20233;-81
2021/12/29 07:25:12;;;;;;;;;;;;;;;;;;5116877;28;20009;-81
2021/12/29 07:27:39;;;;;;;;;;;;;;;;;;5116594;28;20051;-81
2021/12/29 07:30:06;;;;;;;;;;;;;;;;;;5116622;28;20002;-80
2021/12/29 07:32:33;;;;;;;;;;;;;;;;;;5116150;28;20005;-81
2021/12/29 07:35:00;;;;;;;;;;;;;;;;;;5116345;28;20047;-81
2021/12/29 07:37:27;;;;;;;;;;;;;;;;;;5116503;28;20067;-81
2021/12/29 07:39:54;;;;;;;;;;;;;;;;;;5116271;28;20035;-81
2021/12/29 07:42:21;;;;;;;;;;;;;;;;;;5116368;28;20385;-81
2021/12/29 07:44:50;;;;;;;;;;;;;;;;;;5116329;28;20037;-81
2021/12/29 07:47:17;;;;;;;;;;;;;;;;;;5116186;28;19958;-81
2021/12/29 07:49:44;;;;;;;;;;;;;;;;;;5116227;28;20439;-81
2021/12/29 07:52:11;;;;;;;;;;;;;;;;;;5116336;28;20033;-81
2021/12/29 07:54:38;;;;;;;;;;;;;;;;;;5116172;28;19964;-81
2021/12/29 07:57:05;;;;;;;;;;;;;;;;;;5115859;28;20449;-81
2021/12/29 07:59:32;;;;;;;;;;;;;;;;;;5113031;28;20032;-81
2021/12/29 08:01:59;;;;;;;;;;;;;;;;;;5115359;28;20035;-81
2021/12/29 08:04:26;;;;;;;;;;;;;;;;;;5115620;28;20044;-81
2021/12/29 08:06:53;;;;;;;;;;;;;;;;;;5116071;28;20067;-80
2021/12/29 08:09:20;;;;;;;;;;;;;;;;;;5115963;28;20044;-81
2021/12/29 08:11:47;;;;;;;;;;;;;;;;;;5115513;28;20048;-80
2021/12/29 08:14:14;;;;;;;;;;;;;;;;;;5115140;28;20038;-80
2021/12/29 08:16:41;;;;;;;;;;;;;;;;;;5115265;28;19949;-81
2021/12/29 08:19:08;;;;;;;;;;;;;;;;;;5114035;28;20052;-81
2021/12/29 08:21:35;;;;;;;;;;;;;;;;;;5115174;28;19954;-81
2021/12/29 08:24:02;;;;;;;;;;;;;;;;;;5115415;28;20047;-81
2021/12/29 08:26:29;;;;;;;;;;;;;;;;;;5114822;28;20038;-82
2021/12/29 08:28:58;;;;;;;;;;;;;;;;;;5115326;28;19988;-81
2021/12/29 08:31:25;;;;;;;;;;;;;;;;;;5115378;28;19960;-81
2021/12/29 08:33:52;;;;;;;;;;;;;;;;;;5115519;28;19990;-81
2021/12/29 08:36:19;;;;;;;;;;;;;;;;;;5115321;28;20001;-80
2021/12/29 08:38:46;;;;;;;;;;;;;;;;;;5114897;28;20076;-80
2021/12/29 08:41:13;;;;;;;;;;;;;;;;;;5114697;28;19982;-80
2021/12/29 08:43:40;;;;;;;;;;;;;;;;;;5114640;28;20396;-81
2021/12/29 08:46:07;;;;;;;;;;;;;;;;;;5115024;28;20002;-80
2021/12/29 08:48:35;;;;;;;;;;;;;;;;;;5115204;28;20059;-81
2021/12/29 08:51:02;;;;;;;;;;;;;;;;;;5115059;28;19959;-80
2021/12/29 08:53:29;;;;;;;;;;;;;;;;;;5114995;28;20390;-81
2021/12/29 08:55:57;;;;;;;;;;;;;;;;;;5114986;28;20038;-81
2021/12/29 08:58:24;;;;;;;;;;;;;;;;;;5114855;28;20331;-81
2021/12/29 09:00:51;;;;;;;;;;;;;;;;;;5115086;28;19954;-81
2021/12/29 09:03:18;;;;;;;;;;;;;;;;;;5114917;28;20049;-81
2021/12/29 09:05:45;;;;;;;;;;;;;;;;;;5114610;28;20052;-81
2021/12/29 09:08:12;;;;;;;;;;;;;;;;;;5114722;28;20064;-81
2021/12/29 09:10:39;;;;;;;;;;;;;;;;;;5114333;28;19963;-81
2021/12/29 09:13:06;;;;;;;;;;;;;;;;;;5114382;28;20019;-81
2021/12/29 09:15:33;;;;;;;;;;;;;;;;;;5114654;28;20478;-82
2021/12/29 09:18:00;;;;;;;;;;;;;;;;;;5114586;28;19981;-80
2021/12/29 09:20:30;;;;;;;;;;;;;;;;;;5114518;28;20049;-81
2021/12/29 09:22:57;;;;;;;;;;;;;;;;;;5114597;28;20044;-81
2021/12/29 09:25:24;;;;;;;;;;;;;;;;;;5114202;28;20076;-83
2021/12/29 09:27:51;;;;;;;;;;;;;;;;;;5113657;28;20483;-81
2021/12/29 09:30:18;;;;;;;;;;;;;;;;;;5112890;28;20011;-80
2021/12/29 09:32:45;;;;;;;;;;;;;;;;;;5113275;28;20333;-81
2021/12/29 09:35:12;;;;;;;;;;;;;;;;;;5114118;28;20052;-81
2021/12/29 09:37:39;;;;;;;;;;;;;;;;;;5114119;28;19983;-81
2021/12/29 09:40:06;;;;;;;;;;;;;;;;;;5114064;28;20044;-81
2021/12/29 09:42:33;;;;;;;;;;;;;;;;;;5114428;28;19984;-81
2021/12/29 09:45:00;;;;;;;;;;;;;;;;;;5114259;28;20060;-81
2021/12/29 09:47:28;;;;;;;;;;;;;;;;;;5114098;28;20396;-81
2021/12/29 09:49:55;;;;;;;;;;;;;;;;;;5114083;28;19957;-81
2021/12/29 09:52:22;;;;;;;;;;;;;;;;;;5114010;28;19996;-81
2021/12/29 09:54:49;;;;;;;;;;;;;;;;;;5114276;28;20049;-81
2021/12/29 09:57:16;;;;;;;;;;;;;;;;;;5114689;28;19990;-81
2021/12/29 09:59:43;;;;;;;;;;;;;;;;;;5113859;28;20054;-81
2021/12/29 10:02:10;;;;;;;;;;;;;;;;;;5113975;28;20045;-81
2021/12/29 10:04:37;;;;;;;;;;;;;;;;;;5114091;28;20052;-81
2021/12/29 10:07:04;;;;;;;;;;;;;;;;;;5113793;28;19959;-81
2021/12/29 10:09:31;;;;;;;;;;;;;;;;;;5114216;28;20052;-82
2021/12/29 10:11:58;;;;;;;;;;;;;;;;;;5113829;28;20057;-81
2021/12/29 10:14:25;;;;;;;;;;;;;;;;;;5113769;28;20412;-81
2021/12/29 10:16:52;;;;;;;;;;;;;;;;;;5113944;28;20051;-81
2021/12/29 10:19:19;;;;;;;;;;;;;;;;;;5113645;28;20077;-81
2021/12/29 10:21:46;;;;;;;;;;;;;;;;;;5114008;28;20018;-81
2021/12/29 10:24:13;;;;;;;;;;;;;;;;;;5113818;28;20043;-81
2021/12/29 10:26:40;;;;;;;;;;;;;;;;;;5113913;28;20050;-81
2021/12/29 10:29:07;;;;;;;;;;;;;;;;;;5113768;28;20055;-80
2021/12/29 10:31:37;;;;;;;;;;;;;;;;;;5113762;28;20053;-81
2021/12/29 10:34:04;;;;;;;;;;;;;;;;;;5113421;28;19966;-81
2021/12/29 10:36:31;;;;;;;;;;;;;;;;;;5113914;28;20400;-81
2021/12/29 10:38:59;;;;;;;;;;;;;;;;;;5113814;28;20017;-80
2021/12/29 10:41:26;;;;;;;;;;;;;;;;;;5113700;28;19967;-81
2021/12/29 10:43:53;;;;;;;;;;;;;;;;;;5113757;28;20005;-81
2021/12/29 10:46:20;;;;;;;;;;;;;;;;;;5113475;28;20049;-81
2021/12/29 10:48:47;;;;;;;;;;;;;;;;;;5114532;28;20154;-81
2021/12/29 10:51:14;;;;;;;;;;;;;;;;;;5117313;28;20056;-80
2021/12/29 10:53:40;;;;;;;;;;;;;;;;;;5116762;28;20460;-80
2021/12/29 10:56:07;;;;;;;;;;;;;;;;;;5117378;28;20043;-81
2021/12/29 10:58:35;;;;;;;;;;;;;;;;;;5117100;28;20051;-80
2021/12/29 11:01:02;;;;;;;;;;;;;;;;;;5116079;28;19959;-80
2021/12/29 11:03:29;;;;;;;;;;;;;;;;;;5116543;28;19987;-80
2021/12/29 11:05:59;;;;;;;;;;;;;;;;;;5117058;28;20043;-80
2021/12/29 11:08:26;;;;;;;;;;;;;;;;;;5117095;28;19959;-80
2021/12/29 11:10:53;;;;;;;;;;;;;;;;;;5116463;28;20388;-80
2021/12/29 11:13:20;;;;;;;;;;;;;;;;;;5116973;28;20069;-80
2021/12/29 11:15:47;;;;;;;;;;;;;;;;;;5117168;28;20037;-80
2021/12/29 11:18:14;;;;;;;;;;;;;;;;;;5116926;28;19970;-80
2021/12/29 11:20:41;;;;;;;;;;;;;;;;;;5117151;28;20054;-81
2021/12/29 11:23:08;;;;;;;;;;;;;;;;;;5116957;28;20056;-81
2021/12/29 11:25:35;;;;;;;;;;;;;;;;;;5116720;28;20011;-80
2021/12/29 11:28:02;;;;;;;;;;;;;;;;;;5116903;28;19957;-80
2021/12/29 11:30:29;;;;;;;;;;;;;;;;;;5116983;28;19984;-80
2021/12/29 11:32:56;;;;;;;;;;;;;;;;;;5116535;28;19967;-81
2021/12/29 11:35:24;;;;;;;;;;;;;;;;;;5116687;28;19960;-81
2021/12/29 11:37:51;;;;;;;;;;;;;;;;;;5116164;28;20435;-80
2021/12/29 11:40:18;;;;;;;;;;;;;;;;;;5116454;28;19961;-81
2021/12/29 11:42:45;;;;;;;;;;;;;;;;;;5116285;28;20501;-80
2021/12/29 11:45:12;;;;;;;;;;;;;;;;;;5116349;28;20057;-81
2021/12/29 11:47:39;;;;;;;;;;;;;;;;;;5116041;28;20014;-80
2021/12/29 11:50:06;;;;;;;;;;;;;;;;;;5116394;28;20008;-82
2021/12/29 11:52:33;;;;;;;;;;;;;;;;;;5116206;28;20149;-82
2021/12/29 11:55:02;;;;;;;;;;;;;;;;;;5116169;28;20057;-82
2021/12/29 11:57:29;;;;;;;;;;;;;;;;;;5115996;28;19953;-81
2021/12/29 11:59:56;;;;;;;;;;;;;;;;;;5115305;28;20073;-83
2021/12/29 12:02:23;;;;;;;;;;;;;;;;;;5115899;28;20058;-82
2021/12/29 12:04:50;;;;;;;;;;;;;;;;;;5115828;28;20050;-82
2021/12/29 12:07:17;;;;;;;;;;;;;;;;;;5115861;28;20364;-80
2021/12/29 12:09:44;;;;;;;;;;;;;;;;;;5115853;28;19960;-83
2021/12/29 12:12:12;;;;;;;;;;;;;;;;;;5115858;28;20054;-83
2021/12/29 12:14:39;;;;;;;;;;;;;;;;;;5113464;28;20074;-82
2021/12/29 12:17:06;;;;;;;;;;;;;;;;;;5114119;28;19954;-82
2021/12/29 12:19:33;;;;;;;;;;;;;;;;;;5114671;28;20055;-82
2021/12/29 12:22:00;;;;;;;;;;;;;;;;;;5114665;28;20057;-81
2021/12/29 12:24:27;;;;;;;;;;;;;;;;;;5115177;28;20503;-81
2021/12/29 12:26:56;;;;;;;;;;;;;;;;;;5114486;28;21522;-81
2021/12/29 12:29:23;;;;;;;;;;;;;;;;;;5115566;28;20042;-81
2021/12/29 12:31:50;;;;;;;;;;;;;;;;;;5115553;28;20052;-81
2021/12/29 12:34:22;;;;;;;;;;;;;;;;;;5115491;28;20015;-81
2021/12/29 12:36:49;;;;;;;;;;;;;;;;;;5115277;28;20390;-81
2021/12/29 12:39:16;;;;;;;;;;;;;;;;;;5115494;28;20027;-81
2021/12/29 12:41:43;;;;;;;;;;;;;;;;;;5115362;28;20056;-81
2021/12/29 12:44:10;;;;;;;;;;;;;;;;;;5115303;28;20067;-81
2021/12/29 12:46:37;;;;;;;;;;;;;;;;;;5115163;28;20050;-81
2021/12/29 12:49:04;;;;;;;;;;;;;;;;;;5115173;28;20046;-81
2021/12/29 12:51:31;;;;;;;;;;;;;;;;;;5114701;28;20565;-81
2021/12/29 12:53:58;;;;;;;;;;;;;;;;;;5115178;28;19999;-81
2021/12/29 12:56:25;;;;;;;;;;;;;;;;;;5115106;28;20085;-81
2021/12/29 12:58:52;;;;;;;;;;;;;;;;;;5114616;28;19968;-81
2021/12/29 13:01:19;;;;;;;;;;;;;;;;;;5114839;28;20459;-81
2021/12/29 13:03:46;;;;;;;;;;;;;;;;;;5114787;28;20405;-81
2021/12/29 13:06:13;;;;;;;;;;;;;;;;;;5114761;28;20010;-81
2021/12/29 13:08:40;;;;;;;;;;;;;;;;;;5114734;28;20421;-81
2021/12/29 13:11:07;;;;;;;;;;;;;;;;;;5114676;28;19967;-81
2021/12/29 13:13:34;;;;;;;;;;;;;;;;;;5114453;28;20427;-81
2021/12/29 13:16:01;;;;;;;;;;;;;;;;;;5114589;28;20012;-81
2021/12/29 13:18:28;;;;;;;;;;;;;;;;;;5114277;28;20056;-81
2021/12/29 13:20:55;;;;;;;;;;;;;;;;;;5114828;28;20025;-81
2021/12/29 13:23:22;;;;;;;;;;;;;;;;;;5114459;28;19960;-82
2021/12/29 13:25:49;;;;;;;;;;;;;;;;;;5114353;28;19962;-81
2021/12/29 13:28:16;;;;;;;;;;;;;;;;;;5114605;28;19984;-81
2021/12/29 13:30:44;;;;;;;;;;;;;;;;;;5114518;28;19991;-80
2021/12/29 13:33:11;;;;;;;;;;;;;;;;;;5114323;28;19961;-80
2021/12/29 13:35:38;;;;;;;;;;;;;;;;;;5114231;28;19952;-81
2021/12/29 13:38:05;;;;;;;;;;;;;;;;;;5114406;28;19953;-80
2021/12/29 13:40:32;;;;;;;;;;;;;;;;;;5114516;28;19984;-81
2021/12/29 13:42:59;;;;;;;;;;;;;;;;;;5114172;28;20052;-81
2021/12/29 13:45:26;;;;;;;;;;;;;;;;;;5114027;28;20009;-82
2021/12/29 13:47:53;;;;;;;;;;;;;;;;;;5114373;28;20029;-81
2021/12/29 13:50:20;;;;;;;;;;;;;;;;;;5114215;28;20048;-82
2021/12/29 13:52:47;;;;;;;;;;;;;;;;;;5114232;28;20053;-81
2021/12/29 13:55:14;;;;;;;;;;;;;;;;;;5114136;28;20369;-82
2021/12/29 13:57:41;;;;;;;;;;;;;;;;;;5114156;28;20039;-82
2021/12/29 14:00:09;;;;;;;;;;;;;;;;;;5113817;28;20055;-82
2021/12/29 14:02:36;;;;;;;;;;;;;;;;;;5113969;28;20468;-82
2021/12/29 14:05:04;;;;;;;;;;;;;;;;;;5114177;28;20045;-82
2021/12/29 14:07:31;;;;;;;;;;;;;;;;;;5114169;28;20045;-81
2021/12/29 14:09:58;;;;;;;;;;;;;;;;;;5114075;28;20054;-82
2021/12/29 14:12:25;;;;;;;;;;;;;;;;;;5114102;28;19992;-82
2021/12/29 14:14:52;;;;;;;;;;;;;;;;;;5113688;28;20488;-82
2021/12/29 14:17:22;;;;;;;;;;;;;;;;;;5113967;28;20070;-82
2021/12/29 14:19:49;;;;;;;;;;;;;;;;;;5113711;28;20431;-82
2021/12/29 14:22:16;;;;;;;;;;;;;;;;;;5114344;28;20051;-82
2021/12/29 14:24:43;;;;;;;;;;;;;;;;;;5116668;28;20005;-82
2021/12/29 14:27:10;;;;;;;;;;;;;;;;;;5118127;28;19967;-82
2021/12/29 14:29:37;;;;;;;;;;;;;;;;;;5117625;28;20049;-81
2021/12/29 14:32:04;;;;;;;;;;;;;;;;;;5117834;28;20372;-82
2021/12/29 14:34:31;;;;;;;;;;;;;;;;;;5117973;28;20044;-82
2021/12/29 14:36:58;;;;;;;;;;;;;;;;;;5117762;28;20007;-81
2021/12/29 14:39:25;;;;;;;;;;;;;;;;;;5118083;28;19971;-82
2021/12/29 14:41:52;;;;;;;;;;;;;;;;;;5117238;28;20041;-81
2021/12/29 14:44:19;;;;;;;;;;;;;;;;;;5117691;28;19983;-81
2021/12/29 14:46:46;;;;;;;;;;;;;;;;;;5118156;28;19963;-81
2021/12/29 14:49:13;;;;;;;;;;;;;;;;;;5117085;28;19973;-82
2021/12/29 14:51:40;;;;;;;;;;;;;;;;;;5116980;28;19973;-81
2021/12/29 14:54:07;;;;;;;;;;;;;;;;;;5116803;28;20042;-81
2021/12/29 14:56:34;;;;;;;;;;;;;;;;;;5117037;28;20061;-81
2021/12/29 14:59:01;;;;;;;;;;;;;;;;;;5117023;28;19968;-82
2021/12/29 15:01:30;;;;;;;;;;;;;;;;;;5116765;28;20045;-82
2021/12/29 15:03:57;;;;;;;;;;;;;;;;;;5117153;28;19950;-82
2021/12/29 15:06:24;;;;;;;;;;;;;;;;;;5116920;28;20399;-81
2021/12/29 15:08:51;;;;;;;;;;;;;;;;;;5117263;28;20001;-82
2021/12/29 15:11:18;;;;;;;;;;;;;;;;;;5116804;28;20046;-82
2021/12/29 15:13:46;;;;;;;;;;;;;;;;;;5116661;28;20084;-82
2021/12/29 15:16:13;;;;;;;;;;;;;;;;;;5116693;28;19962;-82
2021/12/29 15:18:40;;;;;;;;;;;;;;;;;;5116756;28;19965;-81
2021/12/29 15:21:07;;;;;;;;;;;;;;;;;;5117170;28;20004;-82
2021/12/29 15:23:34;;;;;;;;;;;;;;;;;;5116886;28;19960;-82
2021/12/29 15:26:01;;;;;;;;;;;;;;;;;;5117096;28;20042;-83
2021/12/29 15:28:31;;;;;;;;;;;;;;;;;;5116699;28;20059;-82
2021/12/29 15:30:58;;;;;;;;;;;;;;;;;;5115324;27;19969;-81
2021/12/29 15:33:26;;;;;;;;;;;;;;;;;;5116311;28;20061;-82
2021/12/29 15:35:53;;;;;;;;;;;;;;;;;;5115590;28;20334;-82
2021/12/29 15:38:22;;;;;;;;;;;;;;;;;;5116570;28;19965;-82
2021/12/29 15:40:49;;;;;;;;;;;;;;;;;;5116409;28;19972;-82
2021/12/29 15:43:16;;;;;;;;;;;;;;;;;;5116517;27;19966;-82
2021/12/29 15:45:43;;;;;;;;;;;;;;;;;;5116490;28;20398;-83
2021/12/29 15:48:10;;;;;;;;;;;;;;;;;;5116619;28;20055;-83
2021/12/29 15:50:37;;;;;;;;;;;;;;;;;;5116060;28;20039;-83
2021/12/29 15:53:04;;;;;;;;;;;;;;;;;;5113265;28;20041;-83
2021/12/29 15:55:31;;;;;;;;;;;;;;;;;;5115810;28;20378;-83
2021/12/29 15:57:58;;;;;;;;;;;;;;;;;;5116116;28;20051;-83
2021/12/29 16:00:25;;;;;;;;;;;;;;;;;;5116031;28;20091;-84
2021/12/29 16:02:52;;;;;;;;;;;;;;;;;;5115781;28;20058;-84
2021/12/29 16:05:19;;;;;;;;;;;;;;;;;;5115167;28;20495;-84
2021/12/29 16:07:46;;;;;;;;;;;;;;;;;;5115482;28;20004;-84
2021/12/29 16:10:13;;;;;;;;;;;;;;;;;;5114997;28;20015;-84
2021/12/29 16:12:40;;;;;;;;;;;;;;;;;;5114687;28;19957;-85
2021/12/29 16:15:07;;;;;;;;;;;;;;;;;;5113585;28;20811;-85
2021/12/29 16:17:34;;;;;;;;;;;;;;;;;;5114859;28;20049;-85
2021/12/29 16:20:02;;;;;;;;;;;;;;;;;;5114655;28;20071;-85
2021/12/29 16:22:30;;;;;;;;;;;;;;;;;;5115351;28;20151;-86
2021/12/29 16:24:57;;;;;;;;;;;;;;;;;;5114388;28;19997;-86
2021/12/29 16:27:25;;;;;;;;;;;;;;;;;;5114838;28;19987;-86
2021/12/29 16:29:52;;;;;;;;;;;;;;;;;;5113594;28;19962;-86
2021/12/29 16:32:19;;;;;;;;;;;;;;;;;;5113653;28;20031;-88
2021/12/29 16:34:47;;;;;;;;;;;;;;;;;;5113672;28;20021;-88
2021/12/29 16:37:14;;;;;;;;;;;;;;;;;;5115622;28;19960;-87
2021/12/29 16:39:41;;;;;;;;;;;;;;;;;;5115481;28;20060;-87
2021/12/29 16:42:08;;;;;;;;;;;;;;;;;;5117106;28;20045;-88
2021/12/29 16:44:35;;;;;;;;;;;;;;;;;;5115682;28;20040;-87
2021/12/29 16:47:02;;;;;;;;;;;;;;;;;;5113852;28;20044;-87
2021/12/29 16:49:29;;;;;;;;;;;;;;;;;;5113687;28;20000;-88
2021/12/29 16:51:56;;;;;;;;;;;;;;;;;;5114151;28;20041;-89